sensor_id;sensor_type;location;lat;lon;timestamp;P1;durP1;ratioP1;P2;durP2;ratioP2
29814;SDS011;16708;50.426;7.664;2023-03-23T00:02:20;2.20;;;1.00;;
29814;SDS011;16708;50.426;7.664;2023-03-23T00:07:14;1.70;;;0.90;;
29814;SDS011;16708;50.426;7.664;2023-03-23T00:12:07;2.20;;;1.00;;
29814;SDS011;16708;50.426;7.664;2023-03-23T00:17:00;2.50;;;1.00;;
29814;SDS011;16708;50.426;7.664;2023-03-23T00:21:55;2.40;;;1.10;;
29814;SDS011;16708;50.426;7.664;2023-03-23T00:26:48;1.80;;;0.90;;
29814;SDS011;16708;50.426;7.664;2023-03-23T00:31:40;3.30;;;1.00;;
29814;SDS011;16708;50.426;7.664;2023-03-23T00:36:33;2.30;;;0.90;;
29814;SDS011;16708;50.426;7.664;2023-03-23T00:41:28;1.90;;;0.90;;
29814;SDS011;16708;50.426;7.664;2023-03-23T00:46:22;1.30;;;0.80;;
29814;SDS011;16708;50.426;7.664;2023-03-23T00:51:16;2.20;;;0.90;;
29814;SDS011;16708;50.426;7.664;2023-03-23T00:56:09;3.80;;;1.10;;
29814;SDS011;16708;50.426;7.664;2023-03-23T01:01:04;2.00;;;0.80;;
29814;SDS011;16708;50.426;7.664;2023-03-23T01:05:58;2.60;;;1.00;;
29814;SDS011;16708;50.426;7.664;2023-03-23T01:10:52;1.40;;;0.80;;
29814;SDS011;16708;50.426;7.664;2023-03-23T01:15:47;1.80;;;1.00;;
29814;SDS011;16708;50.426;7.664;2023-03-23T01:20:41;2.70;;;0.80;;
29814;SDS011;16708;50.426;7.664;2023-03-23T01:25:35;3.50;;;0.80;;
29814;SDS011;16708;50.426;7.664;2023-03-23T01:30:30;1.10;;;0.70;;
29814;SDS011;16708;50.426;7.664;2023-03-23T01:35:23;2.30;;;1.00;;
29814;SDS011;16708;50.426;7.664;2023-03-23T01:45:11;1.40;;;0.90;;
29814;SDS011;16708;50.426;7.664;2023-03-23T01:50:05;1.70;;;0.80;;
29814;SDS011;16708;50.426;7.664;2023-03-23T01:54:59;1.80;;;0.70;;
29814;SDS011;16708;50.426;7.664;2023-03-23T01:59:50;2.20;;;0.80;;
29814;SDS011;16708;50.426;7.664;2023-03-23T02:04:43;1.50;;;0.70;;
29814;SDS011;16708;50.426;7.664;2023-03-23T02:09:34;1.80;;;0.70;;
29814;SDS011;16708;50.426;7.664;2023-03-23T02:14:29;2.00;;;0.80;;
29814;SDS011;16708;50.426;7.664;2023-03-23T02:34:05;2.00;;;0.90;;
29814;SDS011;16708;50.426;7.664;2023-03-23T02:38:59;1.50;;;0.70;;
29814;SDS011;16708;50.426;7.664;2023-03-23T02:43:54;5.20;;;0.70;;
29814;SDS011;16708;50.426;7.664;2023-03-23T02:48:48;2.00;;;0.90;;
29814;SDS011;16708;50.426;7.664;2023-03-23T02:53:41;2.10;;;0.80;;
29814;SDS011;16708;50.426;7.664;2023-03-23T02:58:35;1.30;;;0.90;;
29814;SDS011;16708;50.426;7.664;2023-03-23T03:03:30;2.00;;;0.90;;
29814;SDS011;16708;50.426;7.664;2023-03-23T03:08:25;2.60;;;0.90;;
29814;SDS011;16708;50.426;7.664;2023-03-23T03:13:18;2.10;;;1.00;;
29814;SDS011;16708;50.426;7.664;2023-03-23T03:18:12;2.30;;;0.90;;
29814;SDS011;16708;50.426;7.664;2023-03-23T03:23:06;5.90;;;1.20;;
29814;SDS011;16708;50.426;7.664;2023-03-23T03:28:00;1.60;;;1.00;;
29814;SDS011;16708;50.426;7.664;2023-03-23T03:32:53;1.80;;;0.90;;
29814;SDS011;16708;50.426;7.664;2023-03-23T03:37:47;2.00;;;0.90;;
29814;SDS011;16708;50.426;7.664;2023-03-23T03:42:41;2.10;;;0.80;;
29814;SDS011;16708;50.426;7.664;2023-03-23T03:47:35;2.00;;;1.00;;
29814;SDS011;16708;50.426;7.664;2023-03-23T03:52:29;3.30;;;1.10;;
29814;SDS011;16708;50.426;7.664;2023-03-23T03:57:21;3.10;;;1.20;;
29814;SDS011;16708;50.426;7.664;2023-03-23T04:02:14;1.30;;;1.00;;
29814;SDS011;16708;50.426;7.664;2023-03-23T04:07:05;3.00;;;1.00;;
29814;SDS011;16708;50.426;7.664;2023-03-23T04:11:59;3.40;;;1.40;;
29814;SDS011;16708;50.426;7.664;2023-03-23T04:16:54;4.70;;;1.10;;
29814;SDS011;16708;50.426;7.664;2023-03-23T04:21:48;2.20;;;1.20;;
29814;SDS011;16708;50.426;7.664;2023-03-23T04:26:42;2.20;;;1.20;;
29814;SDS011;16708;50.426;7.664;2023-03-23T04:31:38;2.60;;;1.30;;
29814;SDS011;16708;50.426;7.664;2023-03-23T04:36:31;2.80;;;1.00;;
29814;SDS011;16708;50.426;7.664;2023-03-23T04:41:25;3.20;;;1.30;;
29814;SDS011;16708;50.426;7.664;2023-03-23T04:46:18;2.10;;;1.10;;
29814;SDS011;16708;50.426;7.664;2023-03-23T04:51:12;2.00;;;1.00;;
29814;SDS011;16708;50.426;7.664;2023-03-23T04:56:07;3.60;;;1.20;;
29814;SDS011;16708;50.426;7.664;2023-03-23T05:01:00;3.40;;;1.30;;
29814;SDS011;16708;50.426;7.664;2023-03-23T05:05:54;2.20;;;1.00;;
29814;SDS011;16708;50.426;7.664;2023-03-23T05:10:48;3.20;;;1.90;;
29814;SDS011;16708;50.426;7.664;2023-03-23T05:15:42;3.10;;;1.20;;
29814;SDS011;16708;50.426;7.664;2023-03-23T05:20:37;2.40;;;1.20;;
29814;SDS011;16708;50.426;7.664;2023-03-23T05:25:31;2.10;;;1.20;;
29814;SDS011;16708;50.426;7.664;2023-03-23T05:30:26;1.90;;;1.10;;
29814;SDS011;16708;50.426;7.664;2023-03-23T05:35:19;2.00;;;1.10;;
29814;SDS011;16708;50.426;7.664;2023-03-23T05:40:12;1.90;;;1.10;;
29814;SDS011;16708;50.426;7.664;2023-03-23T05:45:06;1.90;;;1.00;;
29814;SDS011;16708;50.426;7.664;2023-03-23T05:49:59;2.50;;;1.50;;
29814;SDS011;16708;50.426;7.664;2023-03-23T05:54:53;2.50;;;1.20;;
29814;SDS011;16708;50.426;7.664;2023-03-23T05:59:47;2.30;;;1.20;;
29814;SDS011;16708;50.426;7.664;2023-03-23T06:04:42;2.80;;;1.50;;
29814;SDS011;16708;50.426;7.664;2023-03-23T06:09:36;3.40;;;1.30;;
29814;SDS011;16708;50.426;7.664;2023-03-23T06:14:29;4.80;;;1.60;;
29814;SDS011;16708;50.426;7.664;2023-03-23T06:19:23;4.80;;;1.40;;
29814;SDS011;16708;50.426;7.664;2023-03-23T06:24:17;3.20;;;1.20;;
29814;SDS011;16708;50.426;7.664;2023-03-23T06:29:11;2.40;;;1.30;;
29814;SDS011;16708;50.426;7.664;2023-03-23T06:34:05;3.60;;;1.30;;
29814;SDS011;16708;50.426;7.664;2023-03-23T06:39:00;2.20;;;1.10;;
29814;SDS011;16708;50.426;7.664;2023-03-23T06:43:54;2.80;;;1.10;;
29814;SDS011;16708;50.426;7.664;2023-03-23T06:48:49;4.00;;;1.80;;
29814;SDS011;16708;50.426;7.664;2023-03-23T06:53:41;2.80;;;1.40;;
29814;SDS011;16708;50.426;7.664;2023-03-23T06:58:35;2.60;;;1.20;;
29814;SDS011;16708;50.426;7.664;2023-03-23T07:03:30;9.30;;;2.10;;
29814;SDS011;16708;50.426;7.664;2023-03-23T07:08:24;3.50;;;1.80;;
29814;SDS011;16708;50.426;7.664;2023-03-23T07:13:18;4.10;;;1.20;;
29814;SDS011;16708;50.426;7.664;2023-03-23T07:18:12;3.80;;;1.30;;
29814;SDS011;16708;50.426;7.664;2023-03-23T07:23:06;4.00;;;1.70;;
29814;SDS011;16708;50.426;7.664;2023-03-23T07:27:59;3.60;;;1.10;;
29814;SDS011;16708;50.426;7.664;2023-03-23T07:32:53;3.80;;;1.10;;
29814;SDS011;16708;50.426;7.664;2023-03-23T07:37:47;3.20;;;1.10;;
29814;SDS011;16708;50.426;7.664;2023-03-23T07:42:42;2.40;;;1.10;;
29814;SDS011;16708;50.426;7.664;2023-03-23T07:47:35;1.80;;;1.00;;
29814;SDS011;16708;50.426;7.664;2023-03-23T07:52:30;2.10;;;1.00;;
29814;SDS011;16708;50.426;7.664;2023-03-23T07:57:24;7.20;;;2.70;;
29814;SDS011;16708;50.426;7.664;2023-03-23T08:02:18;4.50;;;1.60;;
29814;SDS011;16708;50.426;7.664;2023-03-23T08:07:12;1.90;;;1.10;;
29814;SDS011;16708;50.426;7.664;2023-03-23T08:12:06;3.50;;;1.10;;
29814;SDS011;16708;50.426;7.664;2023-03-23T08:16:59;3.50;;;1.20;;
29814;SDS011;16708;50.426;7.664;2023-03-23T08:21:53;2.60;;;0.90;;
29814;SDS011;16708;50.426;7.664;2023-03-23T08:26:47;2.10;;;1.10;;
29814;SDS011;16708;50.426;7.664;2023-03-23T08:31:39;2.90;;;1.10;;
29814;SDS011;16708;50.426;7.664;2023-03-23T08:36:34;3.70;;;1.00;;
29814;SDS011;16708;50.426;7.664;2023-03-23T08:41:28;1.00;;;0.80;;
29814;SDS011;16708;50.426;7.664;2023-03-23T08:46:23;2.90;;;0.80;;
29814;SDS011;16708;50.426;7.664;2023-03-23T08:51:17;1.40;;;0.80;;
29814;SDS011;16708;50.426;7.664;2023-03-23T08:56:11;3.20;;;0.90;;
29814;SDS011;16708;50.426;7.664;2023-03-23T09:01:06;1.60;;;0.90;;
29814;SDS011;16708;50.426;7.664;2023-03-23T09:06:01;1.70;;;0.80;;
29814;SDS011;16708;50.426;7.664;2023-03-23T09:10:55;1.20;;;0.80;;
29814;SDS011;16708;50.426;7.664;2023-03-23T09:15:49;3.40;;;0.90;;
29814;SDS011;16708;50.426;7.664;2023-03-23T09:20:44;2.60;;;0.80;;
29814;SDS011;16708;50.426;7.664;2023-03-23T09:25:39;2.40;;;0.80;;
29814;SDS011;16708;50.426;7.664;2023-03-23T09:30:33;2.50;;;0.70;;
29814;SDS011;16708;50.426;7.664;2023-03-23T09:35:27;1.30;;;0.70;;
29814;SDS011;16708;50.426;7.664;2023-03-23T09:45:16;2.20;;;0.70;;
29814;SDS011;16708;50.426;7.664;2023-03-23T09:50:10;2.10;;;0.80;;
29814;SDS011;16708;50.426;7.664;2023-03-23T09:55:05;1.80;;;0.70;;
29814;SDS011;16708;50.426;7.664;2023-03-23T09:59:59;1.60;;;0.90;;
29814;SDS011;16708;50.426;7.664;2023-03-23T10:04:54;1.40;;;0.70;;
29814;SDS011;16708;50.426;7.664;2023-03-23T10:09:48;3.30;;;0.70;;
29814;SDS011;16708;50.426;7.664;2023-03-23T10:24:31;2.40;;;0.60;;
29814;SDS011;16708;50.426;7.664;2023-03-23T10:29:26;1.60;;;0.60;;
29814;SDS011;16708;50.426;7.664;2023-03-23T10:34:21;1.80;;;0.60;;
29814;SDS011;16708;50.426;7.664;2023-03-23T10:39:15;1.70;;;0.70;;
29814;SDS011;16708;50.426;7.664;2023-03-23T10:44:08;1.70;;;0.60;;
29814;SDS011;16708;50.426;7.664;2023-03-23T10:49:03;2.00;;;0.70;;
29814;SDS011;16708;50.426;7.664;2023-03-23T10:53:56;1.30;;;0.60;;
29814;SDS011;16708;50.426;7.664;2023-03-23T10:58:51;2.30;;;0.70;;
29814;SDS011;16708;50.426;7.664;2023-03-23T11:23:23;1.40;;;0.60;;
29814;SDS011;16708;50.426;7.664;2023-03-23T11:28:17;1.40;;;0.50;;
29814;SDS011;16708;50.426;7.664;2023-03-23T11:38:06;1.30;;;0.70;;
29814;SDS011;16708;50.426;7.664;2023-03-23T11:47:54;1.40;;;0.50;;
29814;SDS011;16708;50.426;7.664;2023-03-23T11:52:49;3.20;;;0.60;;
29814;SDS011;16708;50.426;7.664;2023-03-23T12:07:32;2.00;;;0.70;;
29814;SDS011;16708;50.426;7.664;2023-03-23T12:12:27;1.00;;;0.60;;
29814;SDS011;16708;50.426;7.664;2023-03-23T12:32:03;1.90;;;0.50;;
29814;SDS011;16708;50.426;7.664;2023-03-23T12:41:52;1.00;;;0.50;;
29814;SDS011;16708;50.426;7.664;2023-03-23T12:46:46;1.20;;;0.60;;
29814;SDS011;16708;50.426;7.664;2023-03-23T12:51:41;0.70;;;0.60;;
29814;SDS011;16708;50.426;7.664;2023-03-23T12:56:36;1.70;;;0.50;;
29814;SDS011;16708;50.426;7.664;2023-03-23T13:01:31;1.30;;;0.50;;
29814;SDS011;16708;50.426;7.664;2023-03-23T13:06:26;1.50;;;0.50;;
29814;SDS011;16708;50.426;7.664;2023-03-23T13:11:20;1.80;;;0.60;;
29814;SDS011;16708;50.426;7.664;2023-03-23T13:21:09;1.20;;;0.60;;
29814;SDS011;16708;50.426;7.664;2023-03-23T13:26:03;3.10;;;0.60;;
29814;SDS011;16708;50.426;7.664;2023-03-23T13:30:57;2.10;;;0.60;;
29814;SDS011;16708;50.426;7.664;2023-03-23T13:45:39;3.50;;;0.70;;
29814;SDS011;16708;50.426;7.664;2023-03-23T14:10:08;1.70;;;0.70;;
29814;SDS011;16708;50.426;7.664;2023-03-23T14:15:03;1.90;;;0.60;;
29814;SDS011;16708;50.426;7.664;2023-03-23T14:19:57;1.40;;;0.70;;
29814;SDS011;16708;50.426;7.664;2023-03-23T14:24:49;1.00;;;0.60;;
29814;SDS011;16708;50.426;7.664;2023-03-23T14:29:43;2.60;;;0.70;;
29814;SDS011;16708;50.426;7.664;2023-03-23T14:34:37;2.10;;;0.70;;
29814;SDS011;16708;50.426;7.664;2023-03-23T14:39:32;1.90;;;0.70;;
29814;SDS011;16708;50.426;7.664;2023-03-23T14:44:26;2.50;;;0.60;;
29814;SDS011;16708;50.426;7.664;2023-03-23T14:49:21;1.70;;;0.60;;
29814;SDS011;16708;50.426;7.664;2023-03-23T14:59:08;1.30;;;0.60;;
29814;SDS011;16708;50.426;7.664;2023-03-23T15:04:02;1.50;;;0.70;;
29814;SDS011;16708;50.426;7.664;2023-03-23T15:08:56;3.00;;;0.70;;
29814;SDS011;16708;50.426;7.664;2023-03-23T15:13:51;1.50;;;0.80;;
29814;SDS011;16708;50.426;7.664;2023-03-23T15:23:39;3.10;;;0.80;;
29814;SDS011;16708;50.426;7.664;2023-03-23T15:33:25;2.50;;;1.00;;
29814;SDS011;16708;50.426;7.664;2023-03-23T15:38:20;3.00;;;0.90;;
29814;SDS011;16708;50.426;7.664;2023-03-23T15:48:06;3.80;;;1.10;;
29814;SDS011;16708;50.426;7.664;2023-03-23T15:53:01;3.40;;;1.00;;
29814;SDS011;16708;50.426;7.664;2023-03-23T15:57:56;2.60;;;1.20;;
29814;SDS011;16708;50.426;7.664;2023-03-23T16:02:50;4.30;;;1.10;;
29814;SDS011;16708;50.426;7.664;2023-03-23T16:07:45;2.90;;;1.20;;
29814;SDS011;16708;50.426;7.664;2023-03-23T16:12:39;4.90;;;1.30;;
29814;SDS011;16708;50.426;7.664;2023-03-23T16:22:26;4.10;;;1.20;;
29814;SDS011;16708;50.426;7.664;2023-03-23T16:32:14;3.40;;;1.10;;
29814;SDS011;16708;50.426;7.664;2023-03-23T16:37:09;3.70;;;1.10;;
29814;SDS011;16708;50.426;7.664;2023-03-23T16:42:03;5.40;;;1.20;;
29814;SDS011;16708;50.426;7.664;2023-03-23T16:46:58;5.10;;;1.30;;
29814;SDS011;16708;50.426;7.664;2023-03-23T16:51:52;6.10;;;1.70;;
29814;SDS011;16708;50.426;7.664;2023-03-23T16:56:46;4.80;;;1.30;;
29814;SDS011;16708;50.426;7.664;2023-03-23T17:01:39;5.30;;;1.20;;
29814;SDS011;16708;50.426;7.664;2023-03-23T17:06:33;5.70;;;1.30;;
29814;SDS011;16708;50.426;7.664;2023-03-23T17:11:28;5.90;;;1.60;;
29814;SDS011;16708;50.426;7.664;2023-03-23T17:16:22;4.10;;;1.20;;
29814;SDS011;16708;50.426;7.664;2023-03-23T17:21:16;5.40;;;1.20;;
29814;SDS011;16708;50.426;7.664;2023-03-23T17:26:10;4.30;;;1.30;;
29814;SDS011;16708;50.426;7.664;2023-03-23T17:31:04;5.30;;;1.40;;
29814;SDS011;16708;50.426;7.664;2023-03-23T17:35:58;4.10;;;0.90;;
29814;SDS011;16708;50.426;7.664;2023-03-23T17:40:53;4.90;;;1.20;;
29814;SDS011;16708;50.426;7.664;2023-03-23T17:45:47;2.80;;;1.00;;
29814;SDS011;16708;50.426;7.664;2023-03-23T17:50:41;2.10;;;0.90;;
29814;SDS011;16708;50.426;7.664;2023-03-23T17:55:35;3.30;;;1.20;;
29814;SDS011;16708;50.426;7.664;2023-03-23T18:00:29;4.60;;;1.30;;
29814;SDS011;16708;50.426;7.664;2023-03-23T18:05:24;3.30;;;1.10;;
29814;SDS011;16708;50.426;7.664;2023-03-23T18:10:18;5.90;;;1.20;;
29814;SDS011;16708;50.426;7.664;2023-03-23T18:15:13;3.20;;;1.10;;
29814;SDS011;16708;50.426;7.664;2023-03-23T18:20:07;3.60;;;1.30;;
29814;SDS011;16708;50.426;7.664;2023-03-23T18:25:01;4.90;;;1.10;;
29814;SDS011;16708;50.426;7.664;2023-03-23T18:29:56;2.90;;;1.00;;
29814;SDS011;16708;50.426;7.664;2023-03-23T18:34:51;3.60;;;1.00;;
29814;SDS011;16708;50.426;7.664;2023-03-23T18:39:45;2.90;;;1.20;;
29814;SDS011;16708;50.426;7.664;2023-03-23T18:44:39;2.70;;;1.00;;
29814;SDS011;16708;50.426;7.664;2023-03-23T18:49:34;3.30;;;1.00;;
29814;SDS011;16708;50.426;7.664;2023-03-23T18:54:28;3.90;;;1.20;;
29814;SDS011;16708;50.426;7.664;2023-03-23T18:59:23;3.20;;;1.20;;
29814;SDS011;16708;50.426;7.664;2023-03-23T19:04:17;4.80;;;1.20;;
29814;SDS011;16708;50.426;7.664;2023-03-23T19:09:11;4.00;;;1.10;;
29814;SDS011;16708;50.426;7.664;2023-03-23T19:14:05;4.00;;;1.30;;
29814;SDS011;16708;50.426;7.664;2023-03-23T19:19:00;2.70;;;1.00;;
29814;SDS011;16708;50.426;7.664;2023-03-23T19:23:55;5.00;;;1.30;;
29814;SDS011;16708;50.426;7.664;2023-03-23T19:28:48;4.00;;;1.00;;
29814;SDS011;16708;50.426;7.664;2023-03-23T19:33:43;5.90;;;1.20;;
29814;SDS011;16708;50.426;7.664;2023-03-23T19:38:38;4.90;;;2.00;;
29814;SDS011;16708;50.426;7.664;2023-03-23T19:43:32;8.10;;;4.10;;
29814;SDS011;16708;50.426;7.664;2023-03-23T19:48:26;5.80;;;2.50;;
29814;SDS011;16708;50.426;7.664;2023-03-23T19:53:21;5.90;;;1.60;;
29814;SDS011;16708;50.426;7.664;2023-03-23T19:58:15;10.10;;;3.30;;
29814;SDS011;16708;50.426;7.664;2023-03-23T20:03:09;2.80;;;1.20;;
29814;SDS011;16708;50.426;7.664;2023-03-23T20:08:03;3.80;;;1.80;;
29814;SDS011;16708;50.426;7.664;2023-03-23T20:12:58;4.70;;;1.20;;
29814;SDS011;16708;50.426;7.664;2023-03-23T20:17:52;3.10;;;1.10;;
29814;SDS011;16708;50.426;7.664;2023-03-23T20:22:46;3.70;;;1.20;;
29814;SDS011;16708;50.426;7.664;2023-03-23T20:27:40;2.50;;;1.00;;
29814;SDS011;16708;50.426;7.664;2023-03-23T20:32:35;2.70;;;1.00;;
29814;SDS011;16708;50.426;7.664;2023-03-23T20:37:29;2.90;;;1.20;;
29814;SDS011;16708;50.426;7.664;2023-03-23T20:42:24;2.10;;;1.30;;
29814;SDS011;16708;50.426;7.664;2023-03-23T20:47:18;3.80;;;1.10;;
29814;SDS011;16708;50.426;7.664;2023-03-23T20:52:12;4.50;;;1.20;;
29814;SDS011;16708;50.426;7.664;2023-03-23T20:57:07;2.50;;;1.00;;
29814;SDS011;16708;50.426;7.664;2023-03-23T21:02:00;3.10;;;1.00;;
29814;SDS011;16708;50.426;7.664;2023-03-23T21:06:55;3.80;;;1.30;;
29814;SDS011;16708;50.426;7.664;2023-03-23T21:11:49;3.60;;;1.20;;
29814;SDS011;16708;50.426;7.664;2023-03-23T21:16:43;3.70;;;1.00;;
29814;SDS011;16708;50.426;7.664;2023-03-23T21:21:38;3.40;;;1.30;;
29814;SDS011;16708;50.426;7.664;2023-03-23T21:26:33;3.50;;;1.40;;
29814;SDS011;16708;50.426;7.664;2023-03-23T21:31:27;2.30;;;1.10;;
29814;SDS011;16708;50.426;7.664;2023-03-23T21:36:22;3.40;;;1.40;;
29814;SDS011;16708;50.426;7.664;2023-03-23T21:41:14;3.70;;;1.50;;
29814;SDS011;16708;50.426;7.664;2023-03-23T21:46:08;3.20;;;1.90;;
29814;SDS011;16708;50.426;7.664;2023-03-23T21:51:02;2.90;;;1.60;;
29814;SDS011;16708;50.426;7.664;2023-03-23T21:55:57;3.50;;;1.80;;
29814;SDS011;16708;50.426;7.664;2023-03-23T22:00:50;3.80;;;1.60;;
29814;SDS011;16708;50.426;7.664;2023-03-23T22:05:45;3.80;;;2.00;;
29814;SDS011;16708;50.426;7.664;2023-03-23T22:10:39;3.10;;;1.90;;
29814;SDS011;16708;50.426;7.664;2023-03-23T22:15:33;3.20;;;1.90;;
29814;SDS011;16708;50.426;7.664;2023-03-23T22:20:27;4.50;;;2.00;;
29814;SDS011;16708;50.426;7.664;2023-03-23T22:25:21;2.80;;;1.80;;
29814;SDS011;16708;50.426;7.664;2023-03-23T22:30:13;3.50;;;1.90;;
29814;SDS011;16708;50.426;7.664;2023-03-23T22:35:06;3.70;;;2.10;;
29814;SDS011;16708;50.426;7.664;2023-03-23T22:39:59;4.20;;;1.90;;
29814;SDS011;16708;50.426;7.664;2023-03-23T22:44:54;3.90;;;1.90;;
29814;SDS011;16708;50.426;7.664;2023-03-23T22:49:47;3.70;;;2.00;;
29814;SDS011;16708;50.426;7.664;2023-03-23T22:54:41;3.80;;;1.90;;
29814;SDS011;16708;50.426;7.664;2023-03-23T22:59:35;8.00;;;2.50;;
29814;SDS011;16708;50.426;7.664;2023-03-23T23:04:29;5.90;;;2.40;;
29814;SDS011;16708;50.426;7.664;2023-03-23T23:09:24;3.30;;;1.90;;
29814;SDS011;16708;50.426;7.664;2023-03-23T23:14:18;4.90;;;1.80;;
29814;SDS011;16708;50.426;7.664;2023-03-23T23:19:10;5.10;;;2.00;;
29814;SDS011;16708;50.426;7.664;2023-03-23T23:24:05;5.70;;;1.80;;
29814;SDS011;16708;50.426;7.664;2023-03-23T23:28:59;4.10;;;1.60;;
29814;SDS011;16708;50.426;7.664;2023-03-23T23:33:53;2.80;;;1.70;;
29814;SDS011;16708;50.426;7.664;2023-03-23T23:38:48;3.60;;;1.70;;
29814;SDS011;16708;50.426;7.664;2023-03-23T23:43:42;4.60;;;2.00;;
29814;SDS011;16708;50.426;7.664;2023-03-23T23:48:37;4.10;;;1.70;;
29814;SDS011;16708;50.426;7.664;2023-03-23T23:53:31;4.70;;;1.50;;
29814;SDS011;16708;50.426;7.664;2023-03-23T23:58:25;2.10;;;1.50;;
